sensor_id;sensor_type;location;lat;lon;timestamp;P1;durP1;ratioP1;P2;durP2;ratioP2
7561;SDS011;3822;48.784;9.174;2022-07-05T00:00:08;2.00;;;1.63;;
7561;SDS011;3822;48.784;9.174;2022-07-05T00:02:36;3.07;;;1.87;;
7561;SDS011;3822;48.784;9.174;2022-07-05T00:05:02;2.63;;;1.90;;
7561;SDS011;3822;48.784;9.174;2022-07-05T00:07:29;2.20;;;1.70;;
7561;SDS011;3822;48.784;9.174;2022-07-05T00:09:56;11.53;;;2.23;;
7561;SDS011;3822;48.784;9.174;2022-07-05T00:12:25;2.57;;;1.90;;
7561;SDS011;3822;48.784;9.174;2022-07-05T00:14:55;3.33;;;1.97;;
7561;SDS011;3822;48.784;9.174;2022-07-05T00:17:22;3.40;;;2.20;;
7561;SDS011;3822;48.784;9.174;2022-07-05T00:19:49;4.40;;;1.90;;
7561;SDS011;3822;48.784;9.174;2022-07-05T00:22:15;2.57;;;1.90;;
7561;SDS011;3822;48.784;9.174;2022-07-05T00:24:42;2.50;;;1.70;;
7561;SDS011;3822;48.784;9.174;2022-07-05T00:27:09;2.60;;;1.67;;
7561;SDS011;3822;48.784;9.174;2022-07-05T00:29:35;3.60;;;2.47;;
7561;SDS011;3822;48.784;9.174;2022-07-05T00:32:02;1.67;;;1.40;;
7561;SDS011;3822;48.784;9.174;2022-07-05T00:34:28;2.13;;;1.50;;
7561;SDS011;3822;48.784;9.174;2022-07-05T00:36:55;1.70;;;1.53;;
7561;SDS011;3822;48.784;9.174;2022-07-05T00:39:21;3.60;;;2.40;;
7561;SDS011;3822;48.784;9.174;2022-07-05T00:41:48;5.80;;;2.40;;
7561;SDS011;3822;48.784;9.174;2022-07-05T00:44:14;2.00;;;1.80;;
7561;SDS011;3822;48.784;9.174;2022-07-05T00:46:41;2.53;;;1.83;;
7561;SDS011;3822;48.784;9.174;2022-07-05T00:49:09;5.13;;;1.93;;
7561;SDS011;3822;48.784;9.174;2022-07-05T00:51:36;1.90;;;1.70;;
7561;SDS011;3822;48.784;9.174;2022-07-05T00:54:05;3.30;;;1.70;;
7561;SDS011;3822;48.784;9.174;2022-07-05T00:56:33;5.73;;;2.20;;
7561;SDS011;3822;48.784;9.174;2022-07-05T00:59:00;5.20;;;1.93;;
7561;SDS011;3822;48.784;9.174;2022-07-05T01:01:26;3.20;;;1.80;;
7561;SDS011;3822;48.784;9.174;2022-07-05T01:03:53;5.50;;;1.83;;
7561;SDS011;3822;48.784;9.174;2022-07-05T01:06:20;3.80;;;1.90;;
7561;SDS011;3822;48.784;9.174;2022-07-05T01:08:46;3.47;;;1.90;;
7561;SDS011;3822;48.784;9.174;2022-07-05T01:11:13;3.20;;;1.90;;
7561;SDS011;3822;48.784;9.174;2022-07-05T01:13:41;4.10;;;1.97;;
7561;SDS011;3822;48.784;9.174;2022-07-05T01:16:07;2.60;;;1.80;;
7561;SDS011;3822;48.784;9.174;2022-07-05T01:18:34;2.30;;;1.87;;
7561;SDS011;3822;48.784;9.174;2022-07-05T01:21:02;4.43;;;2.30;;
7561;SDS011;3822;48.784;9.174;2022-07-05T01:23:30;3.87;;;2.00;;
7561;SDS011;3822;48.784;9.174;2022-07-05T01:25:58;7.30;;;2.27;;
7561;SDS011;3822;48.784;9.174;2022-07-05T01:28:28;3.53;;;1.87;;
7561;SDS011;3822;48.784;9.174;2022-07-05T01:30:55;5.23;;;2.03;;
7561;SDS011;3822;48.784;9.174;2022-07-05T01:33:28;3.20;;;2.00;;
7561;SDS011;3822;48.784;9.174;2022-07-05T01:35:56;2.50;;;1.60;;
7561;SDS011;3822;48.784;9.174;2022-07-05T01:38:26;2.23;;;2.03;;
7561;SDS011;3822;48.784;9.174;2022-07-05T01:40:53;7.70;;;2.87;;
7561;SDS011;3822;48.784;9.174;2022-07-05T01:43:20;2.67;;;2.10;;
7561;SDS011;3822;48.784;9.174;2022-07-05T01:45:49;3.00;;;1.83;;
7561;SDS011;3822;48.784;9.174;2022-07-05T01:48:17;2.57;;;1.90;;
7561;SDS011;3822;48.784;9.174;2022-07-05T01:53:19;4.37;;;2.00;;
7561;SDS011;3822;48.784;9.174;2022-07-05T01:55:57;3.30;;;1.70;;
7561;SDS011;3822;48.784;9.174;2022-07-05T01:58:29;2.00;;;1.70;;
7561;SDS011;3822;48.784;9.174;2022-07-05T02:00:57;5.40;;;2.13;;
7561;SDS011;3822;48.784;9.174;2022-07-05T02:03:25;3.30;;;2.03;;
7561;SDS011;3822;48.784;9.174;2022-07-05T02:05:52;2.23;;;1.70;;
7561;SDS011;3822;48.784;9.174;2022-07-05T02:08:19;2.13;;;1.57;;
7561;SDS011;3822;48.784;9.174;2022-07-05T02:10:46;3.47;;;1.90;;
7561;SDS011;3822;48.784;9.174;2022-07-05T02:13:13;3.00;;;2.03;;
7561;SDS011;3822;48.784;9.174;2022-07-05T02:15:40;2.30;;;1.63;;
7561;SDS011;3822;48.784;9.174;2022-07-05T02:18:07;2.40;;;1.80;;
7561;SDS011;3822;48.784;9.174;2022-07-05T02:20:35;1.40;;;1.30;;
7561;SDS011;3822;48.784;9.174;2022-07-05T02:23:05;2.33;;;1.60;;
7561;SDS011;3822;48.784;9.174;2022-07-05T02:25:32;3.00;;;1.73;;
7561;SDS011;3822;48.784;9.174;2022-07-05T02:27:59;5.47;;;1.87;;
7561;SDS011;3822;48.784;9.174;2022-07-05T02:30:26;3.13;;;1.57;;
7561;SDS011;3822;48.784;9.174;2022-07-05T02:32:53;3.10;;;1.70;;
7561;SDS011;3822;48.784;9.174;2022-07-05T02:35:20;3.03;;;1.83;;
7561;SDS011;3822;48.784;9.174;2022-07-05T02:37:46;3.73;;;2.00;;
7561;SDS011;3822;48.784;9.174;2022-07-05T02:40:13;3.20;;;1.87;;
7561;SDS011;3822;48.784;9.174;2022-07-05T02:42:40;4.60;;;1.80;;
7561;SDS011;3822;48.784;9.174;2022-07-05T02:45:06;2.13;;;1.70;;
7561;SDS011;3822;48.784;9.174;2022-07-05T02:47:34;1.80;;;1.50;;
7561;SDS011;3822;48.784;9.174;2022-07-05T02:50:04;3.20;;;2.13;;
7561;SDS011;3822;48.784;9.174;2022-07-05T02:52:35;2.70;;;1.90;;
7561;SDS011;3822;48.784;9.174;2022-07-05T02:55:02;6.30;;;2.13;;
7561;SDS011;3822;48.784;9.174;2022-07-05T02:57:29;8.00;;;2.27;;
7561;SDS011;3822;48.784;9.174;2022-07-05T02:59:56;4.70;;;1.70;;
7561;SDS011;3822;48.784;9.174;2022-07-05T03:02:23;2.80;;;1.63;;
7561;SDS011;3822;48.784;9.174;2022-07-05T03:04:50;2.43;;;1.70;;
7561;SDS011;3822;48.784;9.174;2022-07-05T03:07:16;3.97;;;1.93;;
7561;SDS011;3822;48.784;9.174;2022-07-05T03:09:43;3.63;;;1.97;;
7561;SDS011;3822;48.784;9.174;2022-07-05T03:12:09;5.67;;;1.90;;
7561;SDS011;3822;48.784;9.174;2022-07-05T03:14:36;6.00;;;2.00;;
7561;SDS011;3822;48.784;9.174;2022-07-05T03:17:02;1.80;;;1.70;;
7561;SDS011;3822;48.784;9.174;2022-07-05T03:19:29;3.60;;;1.83;;
7561;SDS011;3822;48.784;9.174;2022-07-05T03:21:55;1.97;;;1.73;;
7561;SDS011;3822;48.784;9.174;2022-07-05T03:24:22;2.10;;;1.83;;
7561;SDS011;3822;48.784;9.174;2022-07-05T03:26:48;4.33;;;1.90;;
7561;SDS011;3822;48.784;9.174;2022-07-05T03:29:15;1.70;;;1.57;;
7561;SDS011;3822;48.784;9.174;2022-07-05T03:31:41;4.40;;;1.93;;
7561;SDS011;3822;48.784;9.174;2022-07-05T03:34:08;3.50;;;1.90;;
7561;SDS011;3822;48.784;9.174;2022-07-05T03:36:34;3.67;;;1.90;;
7561;SDS011;3822;48.784;9.174;2022-07-05T03:39:01;2.90;;;2.17;;
7561;SDS011;3822;48.784;9.174;2022-07-05T03:41:27;3.53;;;2.10;;
7561;SDS011;3822;48.784;9.174;2022-07-05T03:43:54;2.00;;;1.80;;
7561;SDS011;3822;48.784;9.174;2022-07-05T03:46:20;1.97;;;1.53;;
7561;SDS011;3822;48.784;9.174;2022-07-05T03:48:47;2.33;;;1.60;;
7561;SDS011;3822;48.784;9.174;2022-07-05T03:51:14;2.60;;;1.43;;
7561;SDS011;3822;48.784;9.174;2022-07-05T03:53:40;3.00;;;1.63;;
7561;SDS011;3822;48.784;9.174;2022-07-05T03:56:07;2.10;;;1.47;;
7561;SDS011;3822;48.784;9.174;2022-07-05T03:58:33;3.33;;;1.70;;
7561;SDS011;3822;48.784;9.174;2022-07-05T04:01:00;4.10;;;1.60;;
7561;SDS011;3822;48.784;9.174;2022-07-05T04:03:26;4.50;;;2.00;;
7561;SDS011;3822;48.784;9.174;2022-07-05T04:05:53;3.53;;;1.60;;
7561;SDS011;3822;48.784;9.174;2022-07-05T04:08:19;3.77;;;1.70;;
7561;SDS011;3822;48.784;9.174;2022-07-05T04:10:47;3.73;;;2.00;;
7561;SDS011;3822;48.784;9.174;2022-07-05T04:13:14;1.73;;;1.60;;
7561;SDS011;3822;48.784;9.174;2022-07-05T04:15:41;3.17;;;1.90;;
7561;SDS011;3822;48.784;9.174;2022-07-05T04:18:07;3.40;;;1.80;;
7561;SDS011;3822;48.784;9.174;2022-07-05T04:20:34;3.63;;;2.17;;
7561;SDS011;3822;48.784;9.174;2022-07-05T04:23:00;4.33;;;1.73;;
7561;SDS011;3822;48.784;9.174;2022-07-05T04:25:27;3.53;;;2.03;;
7561;SDS011;3822;48.784;9.174;2022-07-05T04:27:54;4.33;;;1.90;;
7561;SDS011;3822;48.784;9.174;2022-07-05T04:30:22;4.33;;;1.77;;
7561;SDS011;3822;48.784;9.174;2022-07-05T04:32:50;4.63;;;1.80;;
7561;SDS011;3822;48.784;9.174;2022-07-05T04:35:18;3.27;;;1.67;;
7561;SDS011;3822;48.784;9.174;2022-07-05T04:37:45;1.87;;;1.60;;
7561;SDS011;3822;48.784;9.174;2022-07-05T04:40:11;3.97;;;1.93;;
7561;SDS011;3822;48.784;9.174;2022-07-05T04:42:39;3.80;;;1.83;;
7561;SDS011;3822;48.784;9.174;2022-07-05T04:45:06;2.30;;;1.60;;
7561;SDS011;3822;48.784;9.174;2022-07-05T04:47:34;4.37;;;1.80;;
7561;SDS011;3822;48.784;9.174;2022-07-05T04:50:01;2.40;;;1.83;;
7561;SDS011;3822;48.784;9.174;2022-07-05T04:52:30;2.50;;;1.60;;
7561;SDS011;3822;48.784;9.174;2022-07-05T04:54:57;2.10;;;1.90;;
7561;SDS011;3822;48.784;9.174;2022-07-05T04:57:23;3.17;;;2.13;;
7561;SDS011;3822;48.784;9.174;2022-07-05T04:59:50;3.50;;;2.17;;
7561;SDS011;3822;48.784;9.174;2022-07-05T05:02:18;2.63;;;1.60;;
7561;SDS011;3822;48.784;9.174;2022-07-05T05:04:44;2.40;;;1.70;;
7561;SDS011;3822;48.784;9.174;2022-07-05T05:07:11;3.10;;;1.70;;
7561;SDS011;3822;48.784;9.174;2022-07-05T05:09:38;4.57;;;1.73;;
7561;SDS011;3822;48.784;9.174;2022-07-05T05:12:05;4.07;;;1.77;;
7561;SDS011;3822;48.784;9.174;2022-07-05T05:14:31;2.80;;;1.60;;
7561;SDS011;3822;48.784;9.174;2022-07-05T05:16:58;4.97;;;2.13;;
7561;SDS011;3822;48.784;9.174;2022-07-05T05:19:24;1.93;;;1.60;;
7561;SDS011;3822;48.784;9.174;2022-07-05T05:21:51;3.57;;;1.60;;
7561;SDS011;3822;48.784;9.174;2022-07-05T05:24:18;1.67;;;1.50;;
7561;SDS011;3822;48.784;9.174;2022-07-05T05:26:44;1.77;;;1.60;;
7561;SDS011;3822;48.784;9.174;2022-07-05T05:29:11;2.33;;;1.43;;
7561;SDS011;3822;48.784;9.174;2022-07-05T05:31:37;1.60;;;1.43;;
7561;SDS011;3822;48.784;9.174;2022-07-05T05:34:04;2.00;;;1.57;;
7561;SDS011;3822;48.784;9.174;2022-07-05T05:36:30;3.80;;;1.20;;
7561;SDS011;3822;48.784;9.174;2022-07-05T05:38:57;1.60;;;1.30;;
7561;SDS011;3822;48.784;9.174;2022-07-05T05:41:23;3.63;;;1.40;;
7561;SDS011;3822;48.784;9.174;2022-07-05T05:43:50;1.47;;;1.37;;
7561;SDS011;3822;48.784;9.174;2022-07-05T05:46:17;2.93;;;1.43;;
7561;SDS011;3822;48.784;9.174;2022-07-05T05:48:43;1.97;;;1.37;;
7561;SDS011;3822;48.784;9.174;2022-07-05T05:51:10;3.13;;;1.37;;
7561;SDS011;3822;48.784;9.174;2022-07-05T05:53:36;2.07;;;1.20;;
7561;SDS011;3822;48.784;9.174;2022-07-05T05:56:03;1.70;;;1.00;;
7561;SDS011;3822;48.784;9.174;2022-07-05T05:58:29;2.80;;;1.10;;
7561;SDS011;3822;48.784;9.174;2022-07-05T06:00:56;4.73;;;1.00;;
7561;SDS011;3822;48.784;9.174;2022-07-05T06:03:23;1.67;;;1.13;;
7561;SDS011;3822;48.784;9.174;2022-07-05T06:05:52;2.60;;;1.27;;
7561;SDS011;3822;48.784;9.174;2022-07-05T06:08:19;6.70;;;1.30;;
7561;SDS011;3822;48.784;9.174;2022-07-05T06:10:46;2.23;;;1.40;;
7561;SDS011;3822;48.784;9.174;2022-07-05T06:13:12;1.63;;;1.20;;
7561;SDS011;3822;48.784;9.174;2022-07-05T06:15:40;1.50;;;0.97;;
7561;SDS011;3822;48.784;9.174;2022-07-05T06:18:08;10.30;;;1.77;;
7561;SDS011;3822;48.784;9.174;2022-07-05T06:20:36;5.60;;;1.13;;
7561;SDS011;3822;48.784;9.174;2022-07-05T06:23:05;2.70;;;1.40;;
7561;SDS011;3822;48.784;9.174;2022-07-05T06:25:33;2.43;;;1.30;;
7561;SDS011;3822;48.784;9.174;2022-07-05T06:28:04;1.63;;;1.30;;
7561;SDS011;3822;48.784;9.174;2022-07-05T06:30:35;2.00;;;1.50;;
7561;SDS011;3822;48.784;9.174;2022-07-05T06:33:03;3.33;;;2.00;;
7561;SDS011;3822;48.784;9.174;2022-07-05T06:35:30;1.40;;;1.30;;
7561;SDS011;3822;48.784;9.174;2022-07-05T06:38:01;6.13;;;1.23;;
7561;SDS011;3822;48.784;9.174;2022-07-05T06:40:34;2.27;;;1.37;;
7561;SDS011;3822;48.784;9.174;2022-07-05T06:43:06;2.13;;;1.17;;
7561;SDS011;3822;48.784;9.174;2022-07-05T06:45:35;1.67;;;1.17;;
7561;SDS011;3822;48.784;9.174;2022-07-05T06:48:03;3.07;;;1.53;;
7561;SDS011;3822;48.784;9.174;2022-07-05T06:50:33;1.77;;;1.20;;
7561;SDS011;3822;48.784;9.174;2022-07-05T06:53:04;1.40;;;1.30;;
7561;SDS011;3822;48.784;9.174;2022-07-05T06:55:31;1.77;;;1.50;;
7561;SDS011;3822;48.784;9.174;2022-07-05T06:57:59;3.20;;;1.80;;
7561;SDS011;3822;48.784;9.174;2022-07-05T07:00:28;4.77;;;1.50;;
7561;SDS011;3822;48.784;9.174;2022-07-05T07:02:58;1.40;;;1.20;;
7561;SDS011;3822;48.784;9.174;2022-07-05T07:05:25;6.23;;;1.60;;
7561;SDS011;3822;48.784;9.174;2022-07-05T07:07:53;2.20;;;1.30;;
7561;SDS011;3822;48.784;9.174;2022-07-05T07:10:38;2.10;;;1.03;;
7561;SDS011;3822;48.784;9.174;2022-07-05T07:13:05;2.57;;;1.20;;
7561;SDS011;3822;48.784;9.174;2022-07-05T07:15:32;2.77;;;1.47;;
7561;SDS011;3822;48.784;9.174;2022-07-05T07:18:02;1.77;;;0.97;;
7561;SDS011;3822;48.784;9.174;2022-07-05T07:20:29;1.73;;;1.13;;
7561;SDS011;3822;48.784;9.174;2022-07-05T07:22:55;1.90;;;1.00;;
7561;SDS011;3822;48.784;9.174;2022-07-05T07:25:22;2.27;;;1.37;;
7561;SDS011;3822;48.784;9.174;2022-07-05T07:27:49;1.67;;;1.23;;
7561;SDS011;3822;48.784;9.174;2022-07-05T07:30:22;1.60;;;1.33;;
7561;SDS011;3822;48.784;9.174;2022-07-05T07:32:51;1.90;;;1.00;;
7561;SDS011;3822;48.784;9.174;2022-07-05T07:35:20;2.20;;;1.10;;
7561;SDS011;3822;48.784;9.174;2022-07-05T07:37:47;2.63;;;1.50;;
7561;SDS011;3822;48.784;9.174;2022-07-05T07:40:14;1.57;;;1.20;;
7561;SDS011;3822;48.784;9.174;2022-07-05T07:42:40;3.00;;;1.37;;
7561;SDS011;3822;48.784;9.174;2022-07-05T07:45:07;1.20;;;1.10;;
7561;SDS011;3822;48.784;9.174;2022-07-05T07:47:34;1.20;;;1.10;;
7561;SDS011;3822;48.784;9.174;2022-07-05T07:50:03;3.00;;;1.07;;
7561;SDS011;3822;48.784;9.174;2022-07-05T07:52:32;1.87;;;1.20;;
7561;SDS011;3822;48.784;9.174;2022-07-05T07:55:02;3.00;;;1.60;;
7561;SDS011;3822;48.784;9.174;2022-07-05T07:57:31;2.67;;;1.47;;
7561;SDS011;3822;48.784;9.174;2022-07-05T07:59:57;2.50;;;1.20;;
7561;SDS011;3822;48.784;9.174;2022-07-05T08:02:24;2.90;;;1.30;;
7561;SDS011;3822;48.784;9.174;2022-07-05T08:04:51;2.10;;;1.50;;
7561;SDS011;3822;48.784;9.174;2022-07-05T08:07:18;2.57;;;1.33;;
7561;SDS011;3822;48.784;9.174;2022-07-05T08:09:45;2.17;;;1.20;;
7561;SDS011;3822;48.784;9.174;2022-07-05T08:12:12;4.47;;;1.40;;
7561;SDS011;3822;48.784;9.174;2022-07-05T08:14:38;2.33;;;1.40;;
7561;SDS011;3822;48.784;9.174;2022-07-05T08:17:05;1.87;;;1.30;;
7561;SDS011;3822;48.784;9.174;2022-07-05T08:19:36;2.10;;;1.00;;
7561;SDS011;3822;48.784;9.174;2022-07-05T08:22:24;1.60;;;1.10;;
7561;SDS011;3822;48.784;9.174;2022-07-05T08:24:51;2.93;;;1.03;;
7561;SDS011;3822;48.784;9.174;2022-07-05T08:27:18;1.40;;;1.17;;
7561;SDS011;3822;48.784;9.174;2022-07-05T08:29:44;2.00;;;1.37;;
7561;SDS011;3822;48.784;9.174;2022-07-05T08:32:11;5.30;;;1.30;;
7561;SDS011;3822;48.784;9.174;2022-07-05T08:34:37;4.50;;;1.40;;
7561;SDS011;3822;48.784;9.174;2022-07-05T08:37:06;1.80;;;1.10;;
7561;SDS011;3822;48.784;9.174;2022-07-05T08:39:33;3.37;;;1.30;;
7561;SDS011;3822;48.784;9.174;2022-07-05T08:42:00;4.30;;;2.13;;
7561;SDS011;3822;48.784;9.174;2022-07-05T08:44:28;3.00;;;1.50;;
7561;SDS011;3822;48.784;9.174;2022-07-05T08:46:56;2.63;;;1.40;;
7561;SDS011;3822;48.784;9.174;2022-07-05T08:49:24;2.90;;;1.57;;
7561;SDS011;3822;48.784;9.174;2022-07-05T08:51:54;2.03;;;1.40;;
7561;SDS011;3822;48.784;9.174;2022-07-05T08:54:21;3.00;;;1.53;;
7561;SDS011;3822;48.784;9.174;2022-07-05T08:56:50;2.40;;;1.30;;
7561;SDS011;3822;48.784;9.174;2022-07-05T08:59:18;2.00;;;1.17;;
7561;SDS011;3822;48.784;9.174;2022-07-05T09:01:45;1.80;;;1.23;;
7561;SDS011;3822;48.784;9.174;2022-07-05T09:04:13;1.30;;;1.20;;
7561;SDS011;3822;48.784;9.174;2022-07-05T09:06:42;2.07;;;1.27;;
7561;SDS011;3822;48.784;9.174;2022-07-05T09:09:17;1.20;;;1.10;;
7561;SDS011;3822;48.784;9.174;2022-07-05T09:11:45;4.27;;;1.27;;
7561;SDS011;3822;48.784;9.174;2022-07-05T09:14:18;2.27;;;1.20;;
7561;SDS011;3822;48.784;9.174;2022-07-05T09:16:50;3.33;;;1.10;;
7561;SDS011;3822;48.784;9.174;2022-07-05T09:19:18;2.77;;;1.30;;
7561;SDS011;3822;48.784;9.174;2022-07-05T09:21:47;2.80;;;1.20;;
7561;SDS011;3822;48.784;9.174;2022-07-05T09:24:26;2.10;;;0.93;;
7561;SDS011;3822;48.784;9.174;2022-07-05T09:26:54;1.20;;;1.10;;
7561;SDS011;3822;48.784;9.174;2022-07-05T09:29:29;4.83;;;1.57;;
7561;SDS011;3822;48.784;9.174;2022-07-05T09:31:57;2.10;;;1.37;;
7561;SDS011;3822;48.784;9.174;2022-07-05T09:34:23;3.33;;;1.10;;
7561;SDS011;3822;48.784;9.174;2022-07-05T09:39:17;5.80;;;1.37;;
7561;SDS011;3822;48.784;9.174;2022-07-05T09:42:09;4.10;;;1.57;;
7561;SDS011;3822;48.784;9.174;2022-07-05T09:47:22;1.43;;;1.20;;
7561;SDS011;3822;48.784;9.174;2022-07-05T09:49:51;2.00;;;1.30;;
7561;SDS011;3822;48.784;9.174;2022-07-05T09:52:28;1.90;;;1.23;;
7561;SDS011;3822;48.784;9.174;2022-07-05T09:57:46;3.67;;;1.47;;
7561;SDS011;3822;48.784;9.174;2022-07-05T10:00:14;1.80;;;1.27;;
7561;SDS011;3822;48.784;9.174;2022-07-05T10:02:43;2.43;;;1.30;;
7561;SDS011;3822;48.784;9.174;2022-07-05T10:05:17;2.17;;;1.20;;
7561;SDS011;3822;48.784;9.174;2022-07-05T10:07:49;2.67;;;1.67;;
7561;SDS011;3822;48.784;9.174;2022-07-05T10:10:25;3.00;;;1.30;;
7561;SDS011;3822;48.784;9.174;2022-07-05T10:13:01;2.43;;;1.23;;
7561;SDS011;3822;48.784;9.174;2022-07-05T10:15:30;1.50;;;1.10;;
7561;SDS011;3822;48.784;9.174;2022-07-05T10:18:00;2.60;;;1.30;;
7561;SDS011;3822;48.784;9.174;2022-07-05T10:20:43;2.67;;;1.13;;
7561;SDS011;3822;48.784;9.174;2022-07-05T10:25:46;2.07;;;1.03;;
7561;SDS011;3822;48.784;9.174;2022-07-05T10:28:16;2.53;;;1.20;;
7561;SDS011;3822;48.784;9.174;2022-07-05T10:30:48;1.30;;;1.00;;
7561;SDS011;3822;48.784;9.174;2022-07-05T10:33:18;1.60;;;1.10;;
7561;SDS011;3822;48.784;9.174;2022-07-05T10:35:53;2.47;;;1.43;;
7561;SDS011;3822;48.784;9.174;2022-07-05T10:38:22;3.93;;;1.37;;
7561;SDS011;3822;48.784;9.174;2022-07-05T10:40:51;1.50;;;1.20;;
7561;SDS011;3822;48.784;9.174;2022-07-05T10:43:21;5.07;;;1.73;;
7561;SDS011;3822;48.784;9.174;2022-07-05T10:45:49;2.90;;;1.30;;
7561;SDS011;3822;48.784;9.174;2022-07-05T10:48:18;1.97;;;0.90;;
7561;SDS011;3822;48.784;9.174;2022-07-05T10:50:56;4.00;;;1.30;;
7561;SDS011;3822;48.784;9.174;2022-07-05T11:03:41;1.63;;;1.00;;
7561;SDS011;3822;48.784;9.174;2022-07-05T11:06:21;1.60;;;1.10;;
7561;SDS011;3822;48.784;9.174;2022-07-05T11:16:48;1.43;;;1.20;;
7561;SDS011;3822;48.784;9.174;2022-07-05T11:22:38;4.37;;;1.30;;
7561;SDS011;3822;48.784;9.174;2022-07-05T11:25:30;1.20;;;0.90;;
7561;SDS011;3822;48.784;9.174;2022-07-05T11:28:17;3.63;;;1.10;;
7561;SDS011;3822;48.784;9.174;2022-07-05T11:30:50;3.03;;;1.33;;
7561;SDS011;3822;48.784;9.174;2022-07-05T11:33:32;5.47;;;1.60;;
7561;SDS011;3822;48.784;9.174;2022-07-05T11:36:00;1.30;;;1.17;;
7561;SDS011;3822;48.784;9.174;2022-07-05T11:38:30;1.40;;;0.97;;
7561;SDS011;3822;48.784;9.174;2022-07-05T11:41:10;3.40;;;1.30;;
7561;SDS011;3822;48.784;9.174;2022-07-05T11:43:38;3.83;;;1.30;;
7561;SDS011;3822;48.784;9.174;2022-07-05T11:46:07;3.13;;;1.60;;
7561;SDS011;3822;48.784;9.174;2022-07-05T11:48:33;5.40;;;1.20;;
7561;SDS011;3822;48.784;9.174;2022-07-05T11:51:11;2.63;;;1.40;;
7561;SDS011;3822;48.784;9.174;2022-07-05T11:53:39;3.70;;;1.30;;
7561;SDS011;3822;48.784;9.174;2022-07-05T11:56:09;1.73;;;1.20;;
7561;SDS011;3822;48.784;9.174;2022-07-05T11:58:36;3.33;;;1.37;;
7561;SDS011;3822;48.784;9.174;2022-07-05T12:01:05;2.07;;;1.10;;
7561;SDS011;3822;48.784;9.174;2022-07-05T12:03:33;2.03;;;1.33;;
7561;SDS011;3822;48.784;9.174;2022-07-05T12:06:09;2.73;;;1.40;;
7561;SDS011;3822;48.784;9.174;2022-07-05T12:08:38;1.87;;;1.20;;
7561;SDS011;3822;48.784;9.174;2022-07-05T12:11:04;2.43;;;1.17;;
7561;SDS011;3822;48.784;9.174;2022-07-05T12:13:50;3.10;;;1.40;;
7561;SDS011;3822;48.784;9.174;2022-07-05T12:16:17;5.60;;;1.60;;
7561;SDS011;3822;48.784;9.174;2022-07-05T12:21:31;1.47;;;1.00;;
7561;SDS011;3822;48.784;9.174;2022-07-05T12:23:58;1.93;;;1.13;;
7561;SDS011;3822;48.784;9.174;2022-07-05T12:26:24;2.20;;;1.07;;
7561;SDS011;3822;48.784;9.174;2022-07-05T12:28:51;1.20;;;1.10;;
7561;SDS011;3822;48.784;9.174;2022-07-05T12:31:22;1.30;;;1.10;;
7561;SDS011;3822;48.784;9.174;2022-07-05T12:33:50;4.77;;;1.37;;
7561;SDS011;3822;48.784;9.174;2022-07-05T12:36:18;1.43;;;0.90;;
7561;SDS011;3822;48.784;9.174;2022-07-05T12:38:48;4.70;;;1.40;;
7561;SDS011;3822;48.784;9.174;2022-07-05T12:41:24;1.77;;;0.80;;
7561;SDS011;3822;48.784;9.174;2022-07-05T12:43:54;1.40;;;1.10;;
7561;SDS011;3822;48.784;9.174;2022-07-05T12:46:34;1.50;;;1.20;;
7561;SDS011;3822;48.784;9.174;2022-07-05T12:49:04;1.30;;;1.07;;
7561;SDS011;3822;48.784;9.174;2022-07-05T12:51:34;1.73;;;1.20;;
7561;SDS011;3822;48.784;9.174;2022-07-05T12:54:02;2.20;;;1.43;;
7561;SDS011;3822;48.784;9.174;2022-07-05T12:56:51;2.50;;;1.27;;
7561;SDS011;3822;48.784;9.174;2022-07-05T12:59:50;1.67;;;1.20;;
7561;SDS011;3822;48.784;9.174;2022-07-05T13:02:34;3.07;;;1.80;;
7561;SDS011;3822;48.784;9.174;2022-07-05T13:05:08;2.13;;;1.17;;
7561;SDS011;3822;48.784;9.174;2022-07-05T13:07:45;1.33;;;1.03;;
7561;SDS011;3822;48.784;9.174;2022-07-05T13:10:15;3.43;;;1.63;;
7561;SDS011;3822;48.784;9.174;2022-07-05T13:12:45;2.53;;;1.37;;
7561;SDS011;3822;48.784;9.174;2022-07-05T13:15:13;2.50;;;1.57;;
7561;SDS011;3822;48.784;9.174;2022-07-05T13:17:41;1.73;;;1.17;;
7561;SDS011;3822;48.784;9.174;2022-07-05T13:20:08;2.63;;;1.10;;
7561;SDS011;3822;48.784;9.174;2022-07-05T13:22:35;1.30;;;1.20;;
7561;SDS011;3822;48.784;9.174;2022-07-05T13:25:02;1.17;;;1.00;;
7561;SDS011;3822;48.784;9.174;2022-07-05T13:27:29;2.30;;;1.20;;
7561;SDS011;3822;48.784;9.174;2022-07-05T13:29:56;1.90;;;1.03;;
7561;SDS011;3822;48.784;9.174;2022-07-05T13:32:23;2.43;;;1.27;;
7561;SDS011;3822;48.784;9.174;2022-07-05T13:34:49;1.47;;;0.97;;
7561;SDS011;3822;48.784;9.174;2022-07-05T13:37:17;1.70;;;1.20;;
7561;SDS011;3822;48.784;9.174;2022-07-05T13:39:44;2.13;;;1.10;;
7561;SDS011;3822;48.784;9.174;2022-07-05T13:42:11;1.30;;;1.10;;
7561;SDS011;3822;48.784;9.174;2022-07-05T13:44:37;1.30;;;1.20;;
7561;SDS011;3822;48.784;9.174;2022-07-05T13:47:04;4.70;;;1.10;;
7561;SDS011;3822;48.784;9.174;2022-07-05T13:49:31;4.13;;;1.33;;
7561;SDS011;3822;48.784;9.174;2022-07-05T13:51:57;3.37;;;1.43;;
7561;SDS011;3822;48.784;9.174;2022-07-05T13:54:27;8.10;;;1.17;;
7561;SDS011;3822;48.784;9.174;2022-07-05T13:56:54;1.20;;;1.00;;
7561;SDS011;3822;48.784;9.174;2022-07-05T13:59:21;3.87;;;1.30;;
7561;SDS011;3822;48.784;9.174;2022-07-05T14:01:48;3.00;;;0.97;;
7561;SDS011;3822;48.784;9.174;2022-07-05T14:04:14;1.93;;;1.23;;
7561;SDS011;3822;48.784;9.174;2022-07-05T14:06:41;1.83;;;1.00;;
7561;SDS011;3822;48.784;9.174;2022-07-05T14:09:08;4.80;;;1.20;;
7561;SDS011;3822;48.784;9.174;2022-07-05T14:11:35;2.60;;;1.30;;
7561;SDS011;3822;48.784;9.174;2022-07-05T14:14:02;2.00;;;1.10;;
7561;SDS011;3822;48.784;9.174;2022-07-05T14:16:28;3.83;;;1.30;;
7561;SDS011;3822;48.784;9.174;2022-07-05T14:18:55;1.67;;;1.17;;
7561;SDS011;3822;48.784;9.174;2022-07-05T14:21:22;1.67;;;1.50;;
7561;SDS011;3822;48.784;9.174;2022-07-05T14:23:48;3.27;;;1.60;;
7561;SDS011;3822;48.784;9.174;2022-07-05T14:26:15;1.70;;;1.10;;
7561;SDS011;3822;48.784;9.174;2022-07-05T14:28:42;2.13;;;1.37;;
7561;SDS011;3822;48.784;9.174;2022-07-05T14:31:09;5.43;;;1.30;;
7561;SDS011;3822;48.784;9.174;2022-07-05T14:33:37;3.03;;;1.33;;
7561;SDS011;3822;48.784;9.174;2022-07-05T14:36:05;3.50;;;1.33;;
7561;SDS011;3822;48.784;9.174;2022-07-05T14:38:32;2.40;;;1.40;;
7561;SDS011;3822;48.784;9.174;2022-07-05T14:40:59;7.33;;;1.33;;
7561;SDS011;3822;48.784;9.174;2022-07-05T14:43:25;3.00;;;1.40;;
7561;SDS011;3822;48.784;9.174;2022-07-05T14:45:52;4.27;;;1.30;;
7561;SDS011;3822;48.784;9.174;2022-07-05T14:48:18;1.70;;;1.30;;
7561;SDS011;3822;48.784;9.174;2022-07-05T14:50:46;2.90;;;1.30;;
7561;SDS011;3822;48.784;9.174;2022-07-05T14:53:15;1.50;;;0.97;;
7561;SDS011;3822;48.784;9.174;2022-07-05T14:55:42;3.03;;;1.40;;
7561;SDS011;3822;48.784;9.174;2022-07-05T14:58:09;3.53;;;1.30;;
7561;SDS011;3822;48.784;9.174;2022-07-05T15:00:35;4.70;;;1.50;;
7561;SDS011;3822;48.784;9.174;2022-07-05T15:03:02;3.00;;;1.13;;
7561;SDS011;3822;48.784;9.174;2022-07-05T15:05:29;4.90;;;1.50;;
7561;SDS011;3822;48.784;9.174;2022-07-05T15:07:56;1.43;;;1.10;;
7561;SDS011;3822;48.784;9.174;2022-07-05T15:10:23;2.13;;;1.20;;
7561;SDS011;3822;48.784;9.174;2022-07-05T15:12:49;2.90;;;1.50;;
7561;SDS011;3822;48.784;9.174;2022-07-05T15:15:16;1.43;;;1.10;;
7561;SDS011;3822;48.784;9.174;2022-07-05T15:17:42;1.97;;;1.10;;
7561;SDS011;3822;48.784;9.174;2022-07-05T15:20:10;1.73;;;1.10;;
7561;SDS011;3822;48.784;9.174;2022-07-05T15:22:36;2.33;;;1.50;;
7561;SDS011;3822;48.784;9.174;2022-07-05T15:25:03;3.40;;;1.20;;
7561;SDS011;3822;48.784;9.174;2022-07-05T15:27:30;4.93;;;0.93;;
7561;SDS011;3822;48.784;9.174;2022-07-05T15:29:58;1.67;;;1.13;;
7561;SDS011;3822;48.784;9.174;2022-07-05T15:32:25;1.30;;;1.17;;
7561;SDS011;3822;48.784;9.174;2022-07-05T15:34:51;2.17;;;1.17;;
7561;SDS011;3822;48.784;9.174;2022-07-05T15:37:18;3.27;;;1.13;;
7561;SDS011;3822;48.784;9.174;2022-07-05T15:39:45;3.37;;;1.30;;
7561;SDS011;3822;48.784;9.174;2022-07-05T15:42:12;7.33;;;1.40;;
7561;SDS011;3822;48.784;9.174;2022-07-05T15:44:41;1.40;;;1.20;;
7561;SDS011;3822;48.784;9.174;2022-07-05T15:47:07;2.90;;;1.20;;
7561;SDS011;3822;48.784;9.174;2022-07-05T15:49:35;1.43;;;1.27;;
7561;SDS011;3822;48.784;9.174;2022-07-05T15:52:02;3.53;;;1.30;;
7561;SDS011;3822;48.784;9.174;2022-07-05T15:54:29;1.63;;;1.03;;
7561;SDS011;3822;48.784;9.174;2022-07-05T15:56:56;2.40;;;1.23;;
7561;SDS011;3822;48.784;9.174;2022-07-05T15:59:23;2.47;;;1.13;;